sensor_id;sensor_type;location;lat;lon;timestamp;P1;durP1;ratioP1;P2;durP2;ratioP2
23590;SDS011;11973;52.098;7.582;2022-10-31T00:00:42;31.90;;;21.33;;
23590;SDS011;11973;52.098;7.582;2022-10-31T00:03:08;32.55;;;19.80;;
23590;SDS011;11973;52.098;7.582;2022-10-31T00:05:34;33.22;;;20.00;;
23590;SDS011;11973;52.098;7.582;2022-10-31T00:07:59;30.17;;;20.33;;
23590;SDS011;11973;52.098;7.582;2022-10-31T00:10:25;31.52;;;19.20;;
23590;SDS011;11973;52.098;7.582;2022-10-31T00:12:51;29.17;;;19.70;;
23590;SDS011;11973;52.098;7.582;2022-10-31T00:15:17;32.30;;;20.35;;
23590;SDS011;11973;52.098;7.582;2022-10-31T00:17:43;26.70;;;18.23;;
23590;SDS011;11973;52.098;7.582;2022-10-31T00:20:08;26.42;;;18.77;;
23590;SDS011;11973;52.098;7.582;2022-10-31T00:22:34;29.75;;;19.75;;
23590;SDS011;11973;52.098;7.582;2022-10-31T00:25:00;33.28;;;19.35;;
23590;SDS011;11973;52.098;7.582;2022-10-31T00:29:54;30.23;;;20.25;;
23590;SDS011;11973;52.098;7.582;2022-10-31T00:32:20;36.20;;;19.25;;
23590;SDS011;11973;52.098;7.582;2022-10-31T00:34:46;30.05;;;19.02;;
23590;SDS011;11973;52.098;7.582;2022-10-31T00:37:12;29.98;;;19.00;;
23590;SDS011;11973;52.098;7.582;2022-10-31T00:39:38;32.70;;;19.75;;
23590;SDS011;11973;52.098;7.582;2022-10-31T00:42:04;24.60;;;19.20;;
23590;SDS011;11973;52.098;7.582;2022-10-31T00:44:29;37.03;;;21.00;;
23590;SDS011;11973;52.098;7.582;2022-10-31T00:46:55;30.95;;;19.60;;
23590;SDS011;11973;52.098;7.582;2022-10-31T00:49:21;27.23;;;19.02;;
23590;SDS011;11973;52.098;7.582;2022-10-31T00:51:46;26.17;;;18.50;;
23590;SDS011;11973;52.098;7.582;2022-10-31T00:54:12;24.75;;;18.25;;
23590;SDS011;11973;52.098;7.582;2022-10-31T00:56:38;28.63;;;20.08;;
23590;SDS011;11973;52.098;7.582;2022-10-31T00:59:03;30.27;;;20.08;;
23590;SDS011;11973;52.098;7.582;2022-10-31T01:01:29;28.60;;;20.17;;
23590;SDS011;11973;52.098;7.582;2022-10-31T01:03:55;29.45;;;20.83;;
23590;SDS011;11973;52.098;7.582;2022-10-31T01:06:21;27.48;;;18.80;;
23590;SDS011;11973;52.098;7.582;2022-10-31T01:08:46;28.55;;;19.23;;
23590;SDS011;11973;52.098;7.582;2022-10-31T01:11:17;29.20;;;19.23;;
23590;SDS011;11973;52.098;7.582;2022-10-31T01:13:47;29.40;;;19.55;;
23590;SDS011;11973;52.098;7.582;2022-10-31T01:16:16;29.25;;;19.23;;
23590;SDS011;11973;52.098;7.582;2022-10-31T01:18:44;29.15;;;20.38;;
23590;SDS011;11973;52.098;7.582;2022-10-31T01:21:11;30.65;;;20.52;;
23590;SDS011;11973;52.098;7.582;2022-10-31T01:23:47;36.63;;;20.70;;
23590;SDS011;11973;52.098;7.582;2022-10-31T01:28:47;28.25;;;20.02;;
23590;SDS011;11973;52.098;7.582;2022-10-31T01:31:15;36.08;;;21.45;;
23590;SDS011;11973;52.098;7.582;2022-10-31T01:33:42;33.83;;;20.63;;
23590;SDS011;11973;52.098;7.582;2022-10-31T01:36:12;32.42;;;19.80;;
23590;SDS011;11973;52.098;7.582;2022-10-31T01:38:40;27.48;;;20.10;;
23590;SDS011;11973;52.098;7.582;2022-10-31T01:41:06;25.85;;;18.02;;
23590;SDS011;11973;52.098;7.582;2022-10-31T01:46:25;25.80;;;18.23;;
23590;SDS011;11973;52.098;7.582;2022-10-31T01:48:57;30.55;;;19.58;;
23590;SDS011;11973;52.098;7.582;2022-10-31T01:51:27;28.45;;;18.92;;
23590;SDS011;11973;52.098;7.582;2022-10-31T01:53:56;28.83;;;19.38;;
23590;SDS011;11973;52.098;7.582;2022-10-31T01:56:25;29.83;;;18.55;;
23590;SDS011;11973;52.098;7.582;2022-10-31T01:58:51;28.08;;;19.65;;
23590;SDS011;11973;52.098;7.582;2022-10-31T02:01:19;29.98;;;19.25;;
23590;SDS011;11973;52.098;7.582;2022-10-31T02:03:45;38.55;;;19.92;;
23590;SDS011;11973;52.098;7.582;2022-10-31T02:06:21;33.28;;;20.67;;
23590;SDS011;11973;52.098;7.582;2022-10-31T02:09:06;34.40;;;19.17;;
23590;SDS011;11973;52.098;7.582;2022-10-31T02:11:32;34.45;;;20.65;;
23590;SDS011;11973;52.098;7.582;2022-10-31T02:14:01;32.03;;;20.77;;
23590;SDS011;11973;52.098;7.582;2022-10-31T02:16:28;36.50;;;20.98;;
23590;SDS011;11973;52.098;7.582;2022-10-31T02:18:53;34.40;;;20.75;;
23590;SDS011;11973;52.098;7.582;2022-10-31T02:35:39;27.65;;;19.42;;
23590;SDS011;11973;52.098;7.582;2022-10-31T02:38:27;28.80;;;18.98;;
23590;SDS011;11973;52.098;7.582;2022-10-31T02:41:48;32.47;;;22.60;;
23590;SDS011;11973;52.098;7.582;2022-10-31T02:47:03;36.13;;;24.27;;
23590;SDS011;11973;52.098;7.582;2022-10-31T02:49:36;46.40;;;29.42;;
23590;SDS011;11973;52.098;7.582;2022-10-31T02:52:17;58.83;;;35.13;;
23590;SDS011;11973;52.098;7.582;2022-10-31T02:54:44;36.33;;;23.02;;
23590;SDS011;11973;52.098;7.582;2022-10-31T02:57:11;36.90;;;22.48;;
23590;SDS011;11973;52.098;7.582;2022-10-31T02:59:40;34.65;;;21.55;;
23590;SDS011;11973;52.098;7.582;2022-10-31T03:16:45;31.35;;;20.67;;
23590;SDS011;11973;52.098;7.582;2022-10-31T03:19:23;29.38;;;20.48;;
23590;SDS011;11973;52.098;7.582;2022-10-31T03:22:04;30.20;;;20.13;;
23590;SDS011;11973;52.098;7.582;2022-10-31T03:24:37;28.55;;;19.88;;
23590;SDS011;11973;52.098;7.582;2022-10-31T03:27:04;31.40;;;21.15;;
23590;SDS011;11973;52.098;7.582;2022-10-31T03:29:33;36.65;;;23.85;;
23590;SDS011;11973;52.098;7.582;2022-10-31T03:32:07;36.67;;;23.27;;
23590;SDS011;11973;52.098;7.582;2022-10-31T03:34:37;31.23;;;21.58;;
23590;SDS011;11973;52.098;7.582;2022-10-31T03:37:07;43.25;;;29.52;;
23590;SDS011;11973;52.098;7.582;2022-10-31T03:39:36;52.78;;;32.85;;
23590;SDS011;11973;52.098;7.582;2022-10-31T03:42:18;32.42;;;23.05;;
23590;SDS011;11973;52.098;7.582;2022-10-31T03:44:49;36.58;;;23.55;;
23590;SDS011;11973;52.098;7.582;2022-10-31T03:47:22;30.45;;;21.60;;
23590;SDS011;11973;52.098;7.582;2022-10-31T03:49:48;28.42;;;20.40;;
23590;SDS011;11973;52.098;7.582;2022-10-31T03:52:26;32.47;;;20.85;;
23590;SDS011;11973;52.098;7.582;2022-10-31T03:54:58;31.75;;;19.45;;
23590;SDS011;11973;52.098;7.582;2022-10-31T03:57:35;29.10;;;19.65;;
23590;SDS011;11973;52.098;7.582;2022-10-31T04:00:08;29.70;;;20.13;;
23590;SDS011;11973;52.098;7.582;2022-10-31T04:02:57;27.45;;;18.70;;
23590;SDS011;11973;52.098;7.582;2022-10-31T04:05:31;27.73;;;18.70;;
23590;SDS011;11973;52.098;7.582;2022-10-31T04:08:02;25.52;;;18.52;;
23590;SDS011;11973;52.098;7.582;2022-10-31T04:10:32;29.15;;;19.58;;
23590;SDS011;11973;52.098;7.582;2022-10-31T04:13:01;29.17;;;18.83;;
23590;SDS011;11973;52.098;7.582;2022-10-31T04:15:46;29.23;;;18.67;;
23590;SDS011;11973;52.098;7.582;2022-10-31T04:18:16;25.10;;;18.40;;
23590;SDS011;11973;52.098;7.582;2022-10-31T04:20:42;25.70;;;17.88;;
23590;SDS011;11973;52.098;7.582;2022-10-31T04:23:14;28.95;;;19.25;;
23590;SDS011;11973;52.098;7.582;2022-10-31T04:25:41;28.73;;;19.48;;
23590;SDS011;11973;52.098;7.582;2022-10-31T04:28:07;25.48;;;19.30;;
23590;SDS011;11973;52.098;7.582;2022-10-31T04:30:33;28.65;;;19.15;;
23590;SDS011;11973;52.098;7.582;2022-10-31T04:32:59;28.42;;;19.27;;
23590;SDS011;11973;52.098;7.582;2022-10-31T04:35:25;27.23;;;19.35;;
23590;SDS011;11973;52.098;7.582;2022-10-31T04:37:52;27.70;;;18.95;;
23590;SDS011;11973;52.098;7.582;2022-10-31T04:40:19;28.02;;;19.00;;
23590;SDS011;11973;52.098;7.582;2022-10-31T04:42:53;30.27;;;19.80;;
23590;SDS011;11973;52.098;7.582;2022-10-31T04:45:19;25.83;;;19.30;;
23590;SDS011;11973;52.098;7.582;2022-10-31T04:47:47;26.75;;;18.85;;
23590;SDS011;11973;52.098;7.582;2022-10-31T04:50:13;26.70;;;19.23;;
23590;SDS011;11973;52.098;7.582;2022-10-31T04:52:42;30.23;;;19.63;;
23590;SDS011;11973;52.098;7.582;2022-10-31T04:55:11;27.02;;;19.25;;
23590;SDS011;11973;52.098;7.582;2022-10-31T04:58:11;27.33;;;18.90;;
23590;SDS011;11973;52.098;7.582;2022-10-31T05:00:37;25.23;;;18.33;;
23590;SDS011;11973;52.098;7.582;2022-10-31T05:03:03;27.30;;;19.95;;
23590;SDS011;11973;52.098;7.582;2022-10-31T05:05:29;26.40;;;19.05;;
23590;SDS011;11973;52.098;7.582;2022-10-31T05:07:59;25.60;;;18.55;;
23590;SDS011;11973;52.098;7.582;2022-10-31T05:10:29;25.67;;;18.73;;
23590;SDS011;11973;52.098;7.582;2022-10-31T05:12:59;25.38;;;18.05;;
23590;SDS011;11973;52.098;7.582;2022-10-31T06:17:57;64.93;;;26.10;;
23590;SDS011;11973;52.098;7.582;2022-10-31T06:20:26;58.80;;;24.88;;
23590;SDS011;11973;52.098;7.582;2022-10-31T06:22:57;54.05;;;24.67;;
23590;SDS011;11973;52.098;7.582;2022-10-31T06:25:23;51.13;;;24.35;;
23590;SDS011;11973;52.098;7.582;2022-10-31T06:27:51;65.18;;;25.77;;
23590;SDS011;11973;52.098;7.582;2022-10-31T06:30:20;52.88;;;24.85;;
23590;SDS011;11973;52.098;7.582;2022-10-31T06:32:46;60.35;;;25.75;;
23590;SDS011;11973;52.098;7.582;2022-10-31T06:35:12;55.35;;;25.45;;
23590;SDS011;11973;52.098;7.582;2022-10-31T06:37:40;75.93;;;25.95;;
23590;SDS011;11973;52.098;7.582;2022-10-31T06:40:25;57.95;;;25.80;;
23590;SDS011;11973;52.098;7.582;2022-10-31T06:43:11;62.50;;;26.33;;
23590;SDS011;11973;52.098;7.582;2022-10-31T06:45:38;65.30;;;27.98;;
23590;SDS011;11973;52.098;7.582;2022-10-31T06:48:22;87.68;;;29.25;;
23590;SDS011;11973;52.098;7.582;2022-10-31T06:51:14;65.38;;;27.92;;
23590;SDS011;11973;52.098;7.582;2022-10-31T06:53:40;70.35;;;28.05;;
23590;SDS011;11973;52.098;7.582;2022-10-31T06:56:09;120.15;;;28.90;;
23590;SDS011;11973;52.098;7.582;2022-10-31T06:58:40;71.95;;;27.95;;
23590;SDS011;11973;52.098;7.582;2022-10-31T07:01:07;55.00;;;27.67;;
23590;SDS011;11973;52.098;7.582;2022-10-31T07:03:33;93.95;;;29.35;;
23590;SDS011;11973;52.098;7.582;2022-10-31T07:05:59;69.60;;;29.58;;
23590;SDS011;11973;52.098;7.582;2022-10-31T07:08:26;103.30;;;28.75;;
23590;SDS011;11973;52.098;7.582;2022-10-31T07:10:52;60.72;;;28.08;;
23590;SDS011;11973;52.098;7.582;2022-10-31T07:13:21;59.17;;;29.55;;
23590;SDS011;11973;52.098;7.582;2022-10-31T07:15:53;70.75;;;29.88;;
23590;SDS011;11973;52.098;7.582;2022-10-31T07:18:21;57.28;;;30.38;;
23590;SDS011;11973;52.098;7.582;2022-10-31T07:20:47;69.57;;;30.92;;
23590;SDS011;11973;52.098;7.582;2022-10-31T07:23:13;105.72;;;30.65;;
23590;SDS011;11973;52.098;7.582;2022-10-31T07:25:42;57.15;;;29.48;;
23590;SDS011;11973;52.098;7.582;2022-10-31T07:28:20;49.10;;;29.40;;
23590;SDS011;11973;52.098;7.582;2022-10-31T07:30:49;71.80;;;30.23;;
23590;SDS011;11973;52.098;7.582;2022-10-31T07:33:19;104.20;;;32.28;;
23590;SDS011;11973;52.098;7.582;2022-10-31T07:36:23;53.20;;;30.80;;
23590;SDS011;11973;52.098;7.582;2022-10-31T07:38:51;64.10;;;32.22;;
23590;SDS011;11973;52.098;7.582;2022-10-31T07:41:17;58.72;;;30.80;;
23590;SDS011;11973;52.098;7.582;2022-10-31T07:43:44;74.15;;;30.80;;
23590;SDS011;11973;52.098;7.582;2022-10-31T07:46:16;54.58;;;30.23;;
23590;SDS011;11973;52.098;7.582;2022-10-31T07:48:42;47.08;;;30.00;;
23590;SDS011;11973;52.098;7.582;2022-10-31T07:51:26;50.65;;;31.38;;
23590;SDS011;11973;52.098;7.582;2022-10-31T07:54:10;50.97;;;31.70;;
23590;SDS011;11973;52.098;7.582;2022-10-31T07:56:36;46.50;;;31.17;;
23590;SDS011;11973;52.098;7.582;2022-10-31T07:59:02;50.38;;;30.73;;
23590;SDS011;11973;52.098;7.582;2022-10-31T08:01:28;47.88;;;31.52;;
23590;SDS011;11973;52.098;7.582;2022-10-31T08:04:19;50.78;;;32.65;;
23590;SDS011;11973;52.098;7.582;2022-10-31T08:07:05;46.25;;;31.75;;
23590;SDS011;11973;52.098;7.582;2022-10-31T08:09:34;52.63;;;32.28;;
23590;SDS011;11973;52.098;7.582;2022-10-31T08:12:04;51.47;;;31.30;;
23590;SDS011;11973;52.098;7.582;2022-10-31T08:14:32;47.53;;;31.20;;
23590;SDS011;11973;52.098;7.582;2022-10-31T08:16:58;49.83;;;32.15;;
23590;SDS011;11973;52.098;7.582;2022-10-31T08:19:32;47.72;;;31.60;;
23590;SDS011;11973;52.098;7.582;2022-10-31T08:21:58;49.08;;;30.02;;
23590;SDS011;11973;52.098;7.582;2022-10-31T08:24:24;49.35;;;30.52;;
23590;SDS011;11973;52.098;7.582;2022-10-31T08:26:51;45.80;;;30.73;;
23590;SDS011;11973;52.098;7.582;2022-10-31T08:29:17;52.60;;;30.35;;
23590;SDS011;11973;52.098;7.582;2022-10-31T08:31:45;53.65;;;31.63;;
23590;SDS011;11973;52.098;7.582;2022-10-31T08:34:30;50.47;;;31.75;;
23590;SDS011;11973;52.098;7.582;2022-10-31T08:37:15;53.10;;;32.08;;
23590;SDS011;11973;52.098;7.582;2022-10-31T08:39:46;59.25;;;33.83;;
23590;SDS011;11973;52.098;7.582;2022-10-31T08:42:13;52.83;;;33.75;;
23590;SDS011;11973;52.098;7.582;2022-10-31T08:44:38;56.38;;;33.88;;
23590;SDS011;11973;52.098;7.582;2022-10-31T08:47:05;54.10;;;34.30;;
23590;SDS011;11973;52.098;7.582;2022-10-31T08:49:33;56.00;;;35.67;;
23590;SDS011;11973;52.098;7.582;2022-10-31T08:51:58;55.20;;;34.63;;
23590;SDS011;11973;52.098;7.582;2022-10-31T08:54:28;60.60;;;36.30;;
23590;SDS011;11973;52.098;7.582;2022-10-31T08:56:54;55.75;;;35.35;;
23590;SDS011;11973;52.098;7.582;2022-10-31T08:59:32;57.40;;;36.22;;
23590;SDS011;11973;52.098;7.582;2022-10-31T09:02:12;52.28;;;35.20;;
23590;SDS011;11973;52.098;7.582;2022-10-31T09:04:38;58.53;;;35.60;;
23590;SDS011;11973;52.098;7.582;2022-10-31T09:07:04;60.35;;;35.33;;
23590;SDS011;11973;52.098;7.582;2022-10-31T09:09:30;61.97;;;36.38;;
23590;SDS011;11973;52.098;7.582;2022-10-31T09:11:56;60.45;;;37.60;;
23590;SDS011;11973;52.098;7.582;2022-10-31T09:14:22;62.75;;;37.78;;
23590;SDS011;11973;52.098;7.582;2022-10-31T09:17:16;69.90;;;38.00;;
23590;SDS011;11973;52.098;7.582;2022-10-31T09:20:05;68.05;;;38.42;;
23590;SDS011;11973;52.098;7.582;2022-10-31T09:22:33;64.07;;;36.75;;
23590;SDS011;11973;52.098;7.582;2022-10-31T09:24:59;62.55;;;37.20;;
23590;SDS011;11973;52.098;7.582;2022-10-31T09:27:25;65.32;;;38.58;;
23590;SDS011;11973;52.098;7.582;2022-10-31T09:29:53;77.18;;;39.72;;
23590;SDS011;11973;52.098;7.582;2022-10-31T09:32:19;72.25;;;39.40;;
23590;SDS011;11973;52.098;7.582;2022-10-31T09:34:45;77.03;;;42.00;;
23590;SDS011;11973;52.098;7.582;2022-10-31T09:37:15;78.53;;;42.22;;
23590;SDS011;11973;52.098;7.582;2022-10-31T09:39:40;81.05;;;43.15;;
23590;SDS011;11973;52.098;7.582;2022-10-31T09:43:22;84.30;;;42.67;;
23590;SDS011;11973;52.098;7.582;2022-10-31T09:48:22;77.28;;;40.90;;
23590;SDS011;11973;52.098;7.582;2022-10-31T09:51:18;70.47;;;41.15;;
23590;SDS011;11973;52.098;7.582;2022-10-31T09:54:05;68.22;;;38.78;;
23590;SDS011;11973;52.098;7.582;2022-10-31T09:56:36;69.95;;;38.28;;
23590;SDS011;11973;52.098;7.582;2022-10-31T09:59:03;70.28;;;38.47;;
23590;SDS011;11973;52.098;7.582;2022-10-31T10:01:34;67.57;;;37.67;;
23590;SDS011;11973;52.098;7.582;2022-10-31T10:04:30;63.55;;;36.15;;
23590;SDS011;11973;52.098;7.582;2022-10-31T10:10:27;56.42;;;32.92;;
23590;SDS011;11973;52.098;7.582;2022-10-31T10:22:01;50.67;;;32.50;;
23590;SDS011;11973;52.098;7.582;2022-10-31T10:30:20;58.65;;;33.13;;
23590;SDS011;11973;52.098;7.582;2022-10-31T10:32:56;55.15;;;33.60;;
23590;SDS011;11973;52.098;7.582;2022-10-31T10:35:34;55.72;;;34.13;;
23590;SDS011;11973;52.098;7.582;2022-10-31T10:38:10;56.22;;;33.15;;
23590;SDS011;11973;52.098;7.582;2022-10-31T10:40:39;59.33;;;32.15;;
23590;SDS011;11973;52.098;7.582;2022-10-31T10:46:00;47.15;;;28.60;;
23590;SDS011;11973;52.098;7.582;2022-10-31T10:54:33;46.80;;;27.42;;
23590;SDS011;11973;52.098;7.582;2022-10-31T11:00:21;46.30;;;27.50;;
23590;SDS011;11973;52.098;7.582;2022-10-31T11:02:51;45.60;;;25.63;;
23590;SDS011;11973;52.098;7.582;2022-10-31T11:05:23;42.03;;;25.70;;
23590;SDS011;11973;52.098;7.582;2022-10-31T11:07:49;42.67;;;25.95;;
23590;SDS011;11973;52.098;7.582;2022-10-31T11:10:16;44.58;;;25.55;;
23590;SDS011;11973;52.098;7.582;2022-10-31T11:12:43;42.50;;;25.50;;
23590;SDS011;11973;52.098;7.582;2022-10-31T11:15:21;42.08;;;24.88;;
23590;SDS011;11973;52.098;7.582;2022-10-31T11:17:52;46.53;;;25.48;;
23590;SDS011;11973;52.098;7.582;2022-10-31T11:20:23;43.70;;;26.13;;
23590;SDS011;11973;52.098;7.582;2022-10-31T11:23:02;47.28;;;26.63;;
23590;SDS011;11973;52.098;7.582;2022-10-31T11:26:04;41.40;;;26.15;;
23590;SDS011;11973;52.098;7.582;2022-10-31T11:28:31;44.55;;;26.05;;
23590;SDS011;11973;52.098;7.582;2022-10-31T11:31:00;48.80;;;26.45;;
23590;SDS011;11973;52.098;7.582;2022-10-31T11:36:15;41.53;;;24.05;;
23590;SDS011;11973;52.098;7.582;2022-10-31T11:38:59;42.08;;;25.17;;
23590;SDS011;11973;52.098;7.582;2022-10-31T11:41:34;36.58;;;23.23;;
23590;SDS011;11973;52.098;7.582;2022-10-31T11:44:12;38.17;;;23.90;;
23590;SDS011;11973;52.098;7.582;2022-10-31T11:46:42;36.53;;;23.27;;
23590;SDS011;11973;52.098;7.582;2022-10-31T11:49:24;39.03;;;23.30;;
23590;SDS011;11973;52.098;7.582;2022-10-31T11:51:58;38.47;;;22.80;;
23590;SDS011;11973;52.098;7.582;2022-10-31T11:54:32;33.88;;;21.80;;
23590;SDS011;11973;52.098;7.582;2022-10-31T11:57:05;37.03;;;22.33;;
23590;SDS011;11973;52.098;7.582;2022-10-31T11:59:31;39.85;;;22.23;;
23590;SDS011;11973;52.098;7.582;2022-10-31T12:01:57;33.92;;;20.83;;
23590;SDS011;11973;52.098;7.582;2022-10-31T12:04:33;38.60;;;21.88;;
23590;SDS011;11973;52.098;7.582;2022-10-31T12:07:03;33.08;;;20.77;;
23590;SDS011;11973;52.098;7.582;2022-10-31T12:09:30;32.50;;;20.58;;
23590;SDS011;11973;52.098;7.582;2022-10-31T12:17:12;33.15;;;19.88;;
23590;SDS011;11973;52.098;7.582;2022-10-31T12:20:00;38.00;;;19.90;;
23590;SDS011;11973;52.098;7.582;2022-10-31T12:25:56;31.08;;;18.55;;
23590;SDS011;11973;52.098;7.582;2022-10-31T12:28:36;27.42;;;17.58;;
23590;SDS011;11973;52.098;7.582;2022-10-31T12:31:19;29.67;;;18.30;;
23590;SDS011;11973;52.098;7.582;2022-10-31T12:44:41;21.13;;;14.63;;
23590;SDS011;11973;52.098;7.582;2022-10-31T12:55:41;25.13;;;14.93;;
23590;SDS011;11973;52.098;7.582;2022-10-31T12:58:30;22.15;;;14.68;;
23590;SDS011;11973;52.098;7.582;2022-10-31T13:01:13;23.30;;;14.55;;
23590;SDS011;11973;52.098;7.582;2022-10-31T13:04:10;19.80;;;14.93;;
23590;SDS011;11973;52.098;7.582;2022-10-31T13:06:40;20.65;;;14.85;;
23590;SDS011;11973;52.098;7.582;2022-10-31T13:09:15;26.10;;;14.45;;
23590;SDS011;11973;52.098;7.582;2022-10-31T13:11:46;21.65;;;15.10;;
23590;SDS011;11973;52.098;7.582;2022-10-31T13:14:59;22.77;;;15.13;;
23590;SDS011;11973;52.098;7.582;2022-10-31T13:17:11;23.50;;;14.95;;
23590;SDS011;11973;52.098;7.582;2022-10-31T13:23:27;22.83;;;13.93;;
23590;SDS011;11973;52.098;7.582;2022-10-31T13:25:54;25.63;;;15.02;;
23590;SDS011;11973;52.098;7.582;2022-10-31T13:28:40;23.55;;;14.57;;
23590;SDS011;11973;52.098;7.582;2022-10-31T13:31:11;25.48;;;15.40;;
23590;SDS011;11973;52.098;7.582;2022-10-31T13:41:12;25.10;;;15.60;;
23590;SDS011;11973;52.098;7.582;2022-10-31T13:46:36;24.00;;;15.40;;
23590;SDS011;11973;52.098;7.582;2022-10-31T13:54:35;26.45;;;15.57;;
23590;SDS011;11973;52.098;7.582;2022-10-31T13:57:06;31.35;;;16.70;;
23590;SDS011;11973;52.098;7.582;2022-10-31T13:59:53;26.20;;;16.17;;
23590;SDS011;11973;52.098;7.582;2022-10-31T14:02:25;30.25;;;16.42;;
23590;SDS011;11973;52.098;7.582;2022-10-31T14:05:03;27.38;;;16.95;;
23590;SDS011;11973;52.098;7.582;2022-10-31T14:07:47;30.85;;;17.25;;
23590;SDS011;11973;52.098;7.582;2022-10-31T14:10:20;30.83;;;17.65;;
23590;SDS011;11973;52.098;7.582;2022-10-31T14:12:51;32.95;;;17.67;;
23590;SDS011;11973;52.098;7.582;2022-10-31T14:15:18;35.10;;;19.25;;
23590;SDS011;11973;52.098;7.582;2022-10-31T14:17:52;27.90;;;18.05;;
23590;SDS011;11973;52.098;7.582;2022-10-31T14:20:39;34.15;;;18.58;;
23590;SDS011;11973;52.098;7.582;2022-10-31T14:23:13;34.97;;;19.05;;
23590;SDS011;11973;52.098;7.582;2022-10-31T14:28:53;38.58;;;20.30;;
23590;SDS011;11973;52.098;7.582;2022-10-31T14:31:36;35.20;;;19.65;;
23590;SDS011;11973;52.098;7.582;2022-10-31T14:51:22;34.13;;;20.15;;
23590;SDS011;11973;52.098;7.582;2022-10-31T14:53:52;37.53;;;20.45;;
23590;SDS011;11973;52.098;7.582;2022-10-31T14:56:24;40.95;;;20.27;;
23590;SDS011;11973;52.098;7.582;2022-10-31T14:58:52;38.08;;;19.70;;
23590;SDS011;11973;52.098;7.582;2022-10-31T15:03:52;41.58;;;20.20;;
23590;SDS011;11973;52.098;7.582;2022-10-31T15:06:26;38.25;;;20.88;;
23590;SDS011;11973;52.098;7.582;2022-10-31T15:08:55;38.60;;;20.35;;
23590;SDS011;11973;52.098;7.582;2022-10-31T15:11:25;34.45;;;20.50;;
23590;SDS011;11973;52.098;7.582;2022-10-31T15:13:55;42.40;;;20.85;;
23590;SDS011;11973;52.098;7.582;2022-10-31T15:16:23;40.42;;;21.48;;
23590;SDS011;11973;52.098;7.582;2022-10-31T15:18:53;42.92;;;21.42;;
23590;SDS011;11973;52.098;7.582;2022-10-31T15:21:30;39.00;;;21.85;;
23590;SDS011;11973;52.098;7.582;2022-10-31T15:23:58;40.80;;;21.33;;
23590;SDS011;11973;52.098;7.582;2022-10-31T15:26:33;39.35;;;21.60;;
23590;SDS011;11973;52.098;7.582;2022-10-31T15:29:16;45.33;;;21.77;;
23590;SDS011;11973;52.098;7.582;2022-10-31T15:31:54;43.63;;;22.83;;
23590;SDS011;11973;52.098;7.582;2022-10-31T15:34:32;44.00;;;23.17;;
23590;SDS011;11973;52.098;7.582;2022-10-31T15:37:12;43.33;;;22.35;;
23590;SDS011;11973;52.098;7.582;2022-10-31T15:39:39;41.05;;;22.02;;
23590;SDS011;11973;52.098;7.582;2022-10-31T15:42:14;41.90;;;22.33;;
23590;SDS011;11973;52.098;7.582;2022-10-31T15:44:49;38.85;;;22.52;;
23590;SDS011;11973;52.098;7.582;2022-10-31T15:47:22;41.28;;;22.55;;
23590;SDS011;11973;52.098;7.582;2022-10-31T15:49:53;44.35;;;23.20;;
23590;SDS011;11973;52.098;7.582;2022-10-31T15:54:53;38.58;;;22.23;;
23590;SDS011;11973;52.098;7.582;2022-10-31T15:57:45;40.45;;;22.75;;
23590;SDS011;11973;52.098;7.582;2022-10-31T16:05:44;40.92;;;23.27;;
23590;SDS011;11973;52.098;7.582;2022-10-31T16:10:54;43.30;;;21.77;;
23590;SDS011;11973;52.098;7.582;2022-10-31T16:13:40;47.63;;;24.00;;
23590;SDS011;11973;52.098;7.582;2022-10-31T16:16:17;40.08;;;22.88;;
23590;SDS011;11973;52.098;7.582;2022-10-31T16:18:45;41.05;;;22.23;;
23590;SDS011;11973;52.098;7.582;2022-10-31T16:21:12;40.40;;;22.67;;
23590;SDS011;11973;52.098;7.582;2022-10-31T16:23:39;42.25;;;22.65;;
23590;SDS011;11973;52.098;7.582;2022-10-31T16:26:12;39.55;;;21.65;;
23590;SDS011;11973;52.098;7.582;2022-10-31T16:28:49;38.88;;;21.85;;
23590;SDS011;11973;52.098;7.582;2022-10-31T16:31:24;43.85;;;23.00;;
23590;SDS011;11973;52.098;7.582;2022-10-31T16:34:03;47.53;;;25.15;;
23590;SDS011;11973;52.098;7.582;2022-10-31T16:36:32;42.85;;;23.73;;
23590;SDS011;11973;52.098;7.582;2022-10-31T16:39:03;42.00;;;25.65;;
23590;SDS011;11973;52.098;7.582;2022-10-31T16:41:29;50.97;;;26.90;;
23590;SDS011;11973;52.098;7.582;2022-10-31T16:43:56;46.30;;;27.92;;
23590;SDS011;11973;52.098;7.582;2022-10-31T16:46:22;57.47;;;29.30;;
23590;SDS011;11973;52.098;7.582;2022-10-31T16:48:50;53.85;;;28.63;;
23590;SDS011;11973;52.098;7.582;2022-10-31T16:51:16;59.40;;;29.17;;
23590;SDS011;11973;52.098;7.582;2022-10-31T16:53:42;48.63;;;27.20;;
23590;SDS011;11973;52.098;7.582;2022-10-31T16:56:12;48.92;;;27.40;;
23590;SDS011;11973;52.098;7.582;2022-10-31T16:58:44;45.35;;;26.38;;
23590;SDS011;11973;52.098;7.582;2022-10-31T17:01:10;46.80;;;26.73;;
23590;SDS011;11973;52.098;7.582;2022-10-31T17:03:37;52.03;;;25.70;;
23590;SDS011;11973;52.098;7.582;2022-10-31T17:06:03;46.92;;;24.58;;
23590;SDS011;11973;52.098;7.582;2022-10-31T17:08:29;44.33;;;24.10;;
23590;SDS011;11973;52.098;7.582;2022-10-31T17:10:56;38.20;;;24.13;;
23590;SDS011;11973;52.098;7.582;2022-10-31T17:13:24;41.38;;;23.85;;
23590;SDS011;11973;52.098;7.582;2022-10-31T17:15:54;36.20;;;22.02;;
23590;SDS011;11973;52.098;7.582;2022-10-31T17:18:22;38.13;;;23.30;;
23590;SDS011;11973;52.098;7.582;2022-10-31T17:20:49;40.70;;;22.88;;
23590;SDS011;11973;52.098;7.582;2022-10-31T17:23:15;45.40;;;23.17;;
23590;SDS011;11973;52.098;7.582;2022-10-31T17:25:41;39.08;;;23.38;;
23590;SDS011;11973;52.098;7.582;2022-10-31T17:28:12;45.63;;;24.52;;
23590;SDS011;11973;52.098;7.582;2022-10-31T17:30:39;40.15;;;22.83;;
23590;SDS011;11973;52.098;7.582;2022-10-31T17:33:07;41.65;;;24.25;;
23590;SDS011;11973;52.098;7.582;2022-10-31T17:35:39;35.95;;;21.90;;
23590;SDS011;11973;52.098;7.582;2022-10-31T17:38:05;39.65;;;23.00;;
23590;SDS011;11973;52.098;7.582;2022-10-31T17:40:31;42.60;;;24.98;;
23590;SDS011;11973;52.098;7.582;2022-10-31T17:42:57;40.53;;;22.33;;
23590;SDS011;11973;52.098;7.582;2022-10-31T17:45:24;42.70;;;23.55;;
23590;SDS011;11973;52.098;7.582;2022-10-31T17:47:51;36.40;;;23.20;;
23590;SDS011;11973;52.098;7.582;2022-10-31T17:50:22;35.17;;;21.83;;
23590;SDS011;11973;52.098;7.582;2022-10-31T17:52:48;46.45;;;26.38;;
23590;SDS011;11973;52.098;7.582;2022-10-31T17:55:14;36.67;;;23.20;;
23590;SDS011;11973;52.098;7.582;2022-10-31T17:57:41;36.30;;;20.48;;
23590;SDS011;11973;52.098;7.582;2022-10-31T18:00:10;31.67;;;21.30;;
23590;SDS011;11973;52.098;7.582;2022-10-31T18:02:38;37.95;;;23.52;;
23590;SDS011;11973;52.098;7.582;2022-10-31T18:05:04;29.98;;;19.98;;
23590;SDS011;11973;52.098;7.582;2022-10-31T18:07:31;33.03;;;21.05;;
23590;SDS011;11973;52.098;7.582;2022-10-31T18:09:57;34.42;;;21.17;;
23590;SDS011;11973;52.098;7.582;2022-10-31T18:12:23;32.00;;;20.00;;
23590;SDS011;11973;52.098;7.582;2022-10-31T18:14:50;30.83;;;19.13;;
23590;SDS011;11973;52.098;7.582;2022-10-31T18:17:16;33.53;;;19.33;;
23590;SDS011;11973;52.098;7.582;2022-10-31T18:19:42;28.20;;;18.88;;
23590;SDS011;11973;52.098;7.582;2022-10-31T18:22:08;27.75;;;18.55;;
23590;SDS011;11973;52.098;7.582;2022-10-31T18:24:34;37.92;;;20.30;;